Elkton, Florida
Current Conditions -  °F | °C
As of 11:58 PM on Sunday 21 Dec 2014 (Local Time) from KSGJ Reporting Station
Moderate Rain Moderate Rain  
Wind Chill: 60°   Ceiling: 7000
Heat Index: 60°   Visibility: 5mi
Dew Point: 60°   Wind: 0mph
Humidity: 100%   Direction: NA
Pressure: 30.07"   Gusts: NA
Location:  29.78°N, 81.43°W
Report Text: KSGJ 220458Z AUTO 00000KT 5SM RA BR FEW050 BKN070 OVC085 16/16 A3007 RMK AO2 SLP181 P0019 T01560156 401890156
Loading
Personal Weather Stations






























Interactive Weather Map New forecast layout! Learn more

10-Day Weather Forecast

Advertisements
Track Severe Weather on mobile